sensor_id;sensor_type;location;lat;lon;timestamp;temperature;humidity
13585;DHT22;6863;48.402;9.994;2023-10-13T00:00:33;16.50;96.10
13585;DHT22;6863;48.402;9.994;2023-10-13T00:03:03;16.50;96.10
13585;DHT22;6863;48.402;9.994;2023-10-13T00:05:30;16.50;96.10
13585;DHT22;6863;48.402;9.994;2023-10-13T00:08:02;16.40;96.20
13585;DHT22;6863;48.402;9.994;2023-10-13T00:10:31;16.40;96.20
13585;DHT22;6863;48.402;9.994;2023-10-13T00:12:59;16.50;96.30
13585;DHT22;6863;48.402;9.994;2023-10-13T00:18:11;16.50;96.60
13585;DHT22;6863;48.402;9.994;2023-10-13T00:20:41;16.50;96.30
13585;DHT22;6863;48.402;9.994;2023-10-13T00:23:14;16.60;96.20
13585;DHT22;6863;48.402;9.994;2023-10-13T00:25:42;16.60;96.10
13585;DHT22;6863;48.402;9.994;2023-10-13T00:28:16;16.70;95.60
13585;DHT22;6863;48.402;9.994;2023-10-13T00:30:52;16.80;95.30
13585;DHT22;6863;48.402;9.994;2023-10-13T00:33:24;16.90;94.90
13585;DHT22;6863;48.402;9.994;2023-10-13T00:35:51;16.90;94.60
13585;DHT22;6863;48.402;9.994;2023-10-13T00:38:19;17.00;94.40
13585;DHT22;6863;48.402;9.994;2023-10-13T00:40:45;17.10;94.20
13585;DHT22;6863;48.402;9.994;2023-10-13T00:43:19;17.10;94.00
13585;DHT22;6863;48.402;9.994;2023-10-13T00:45:50;17.10;93.80
13585;DHT22;6863;48.402;9.994;2023-10-13T00:48:40;17.00;93.70
13585;DHT22;6863;48.402;9.994;2023-10-13T00:51:12;16.90;93.90
13585;DHT22;6863;48.402;9.994;2023-10-13T00:53:57;17.00;93.90
13585;DHT22;6863;48.402;9.994;2023-10-13T00:56:23;16.90;93.80
13585;DHT22;6863;48.402;9.994;2023-10-13T00:58:55;16.70;94.00
13585;DHT22;6863;48.402;9.994;2023-10-13T01:01:23;16.60;94.30
13585;DHT22;6863;48.402;9.994;2023-10-13T01:03:58;16.50;94.50
13585;DHT22;6863;48.402;9.994;2023-10-13T01:06:28;16.40;94.70
13585;DHT22;6863;48.402;9.994;2023-10-13T01:09:02;16.30;94.80
13585;DHT22;6863;48.402;9.994;2023-10-13T01:11:45;16.30;94.70
13585;DHT22;6863;48.402;9.994;2023-10-13T01:14:14;16.40;94.70
13585;DHT22;6863;48.402;9.994;2023-10-13T01:16:43;16.30;94.70
13585;DHT22;6863;48.402;9.994;2023-10-13T01:19:16;16.30;94.70
13585;DHT22;6863;48.402;9.994;2023-10-13T01:21:50;16.30;94.80
13585;DHT22;6863;48.402;9.994;2023-10-13T01:24:22;16.30;94.80
13585;DHT22;6863;48.402;9.994;2023-10-13T01:26:50;16.20;94.80
13585;DHT22;6863;48.402;9.994;2023-10-13T01:29:18;16.20;95.00
13585;DHT22;6863;48.402;9.994;2023-10-13T01:31:46;16.00;95.10
13585;DHT22;6863;48.402;9.994;2023-10-13T01:34:19;16.00;95.50
13585;DHT22;6863;48.402;9.994;2023-10-13T01:39:19;15.90;95.60
13585;DHT22;6863;48.402;9.994;2023-10-13T01:41:46;15.80;95.60
13585;DHT22;6863;48.402;9.994;2023-10-13T01:44:11;15.80;95.70
13585;DHT22;6863;48.402;9.994;2023-10-13T01:46:38;15.70;95.80
13585;DHT22;6863;48.402;9.994;2023-10-13T01:49:04;15.60;96.00
13585;DHT22;6863;48.402;9.994;2023-10-13T01:51:29;15.50;96.10
13585;DHT22;6863;48.402;9.994;2023-10-13T01:53:55;15.50;96.40
13585;DHT22;6863;48.402;9.994;2023-10-13T01:56:24;15.40;96.60
13585;DHT22;6863;48.402;9.994;2023-10-13T01:58:50;15.40;96.80
13585;DHT22;6863;48.402;9.994;2023-10-13T02:01:17;15.40;96.80
13585;DHT22;6863;48.402;9.994;2023-10-13T02:03:53;15.30;96.80
13585;DHT22;6863;48.402;9.994;2023-10-13T02:06:29;15.40;96.50
13585;DHT22;6863;48.402;9.994;2023-10-13T02:09:03;15.30;96.50
13585;DHT22;6863;48.402;9.994;2023-10-13T02:11:42;15.30;96.70
13585;DHT22;6863;48.402;9.994;2023-10-13T02:14:08;15.20;96.80
13585;DHT22;6863;48.402;9.994;2023-10-13T02:16:40;15.20;96.80
13585;DHT22;6863;48.402;9.994;2023-10-13T02:19:06;15.30;96.70
13585;DHT22;6863;48.402;9.994;2023-10-13T02:21:34;15.30;96.50
13585;DHT22;6863;48.402;9.994;2023-10-13T02:24:08;15.30;96.60
13585;DHT22;6863;48.402;9.994;2023-10-13T02:26:39;15.20;96.60
13585;DHT22;6863;48.402;9.994;2023-10-13T02:29:06;15.20;96.70
13585;DHT22;6863;48.402;9.994;2023-10-13T02:31:38;15.20;96.70
13585;DHT22;6863;48.402;9.994;2023-10-13T02:34:05;15.10;96.70
13585;DHT22;6863;48.402;9.994;2023-10-13T02:36:40;15.10;96.90
13585;DHT22;6863;48.402;9.994;2023-10-13T02:39:18;15.00;97.10
13585;DHT22;6863;48.402;9.994;2023-10-13T02:41:53;15.10;97.00
13585;DHT22;6863;48.402;9.994;2023-10-13T02:44:21;15.10;96.80
13585;DHT22;6863;48.402;9.994;2023-10-13T02:46:57;15.10;96.80
13585;DHT22;6863;48.402;9.994;2023-10-13T02:49:24;15.10;96.80
13585;DHT22;6863;48.402;9.994;2023-10-13T02:51:51;15.20;96.80
13585;DHT22;6863;48.402;9.994;2023-10-13T02:54:18;15.20;96.70
13585;DHT22;6863;48.402;9.994;2023-10-13T02:56:44;15.20;96.90
13585;DHT22;6863;48.402;9.994;2023-10-13T02:59:15;15.20;97.00
13585;DHT22;6863;48.402;9.994;2023-10-13T03:01:45;15.10;97.10
13585;DHT22;6863;48.402;9.994;2023-10-13T03:04:10;15.10;97.30
13585;DHT22;6863;48.402;9.994;2023-10-13T03:06:38;15.00;97.50
13585;DHT22;6863;48.402;9.994;2023-10-13T03:09:09;14.80;97.70
13585;DHT22;6863;48.402;9.994;2023-10-13T03:11:43;14.80;98.00
13585;DHT22;6863;48.402;9.994;2023-10-13T03:14:16;14.70;98.20
13585;DHT22;6863;48.402;9.994;2023-10-13T03:16:55;14.60;98.50
13585;DHT22;6863;48.402;9.994;2023-10-13T03:19:27;14.50;98.80
13585;DHT22;6863;48.402;9.994;2023-10-13T03:21:59;14.50;98.90
13585;DHT22;6863;48.402;9.994;2023-10-13T03:24:32;14.50;99.10
13585;DHT22;6863;48.402;9.994;2023-10-13T03:27:04;14.40;99.00
13585;DHT22;6863;48.402;9.994;2023-10-13T03:29:49;14.40;99.20
13585;DHT22;6863;48.402;9.994;2023-10-13T03:32:21;14.20;99.40
13585;DHT22;6863;48.402;9.994;2023-10-13T03:34:47;14.20;99.60
13585;DHT22;6863;48.402;9.994;2023-10-13T03:37:25;14.30;99.70
13585;DHT22;6863;48.402;9.994;2023-10-13T03:40:04;14.30;99.60
13585;DHT22;6863;48.402;9.994;2023-10-13T03:42:55;14.30;99.50
13585;DHT22;6863;48.402;9.994;2023-10-13T03:45:27;14.30;99.50
13585;DHT22;6863;48.402;9.994;2023-10-13T03:47:54;14.30;99.70
13585;DHT22;6863;48.402;9.994;2023-10-13T03:50:20;14.20;99.90
13585;DHT22;6863;48.402;9.994;2023-10-13T03:52:59;14.10;99.90
13585;DHT22;6863;48.402;9.994;2023-10-13T03:55:25;14.00;99.90
13585;DHT22;6863;48.402;9.994;2023-10-13T03:57:53;14.10;99.90
13585;DHT22;6863;48.402;9.994;2023-10-13T04:00:20;14.00;99.90
13585;DHT22;6863;48.402;9.994;2023-10-13T04:03:04;14.10;99.90
13585;DHT22;6863;48.402;9.994;2023-10-13T04:05:35;14.20;99.90
13585;DHT22;6863;48.402;9.994;2023-10-13T04:08:12;14.20;99.90
13585;DHT22;6863;48.402;9.994;2023-10-13T04:10:54;14.20;99.90
13585;DHT22;6863;48.402;9.994;2023-10-13T04:13:20;14.20;99.90
13585;DHT22;6863;48.402;9.994;2023-10-13T04:16:06;14.10;99.90
13585;DHT22;6863;48.402;9.994;2023-10-13T04:18:47;14.00;99.90
13585;DHT22;6863;48.402;9.994;2023-10-13T04:21:32;14.00;99.90
13585;DHT22;6863;48.402;9.994;2023-10-13T04:24:12;13.80;99.90
13585;DHT22;6863;48.402;9.994;2023-10-13T04:26:44;13.80;99.90
13585;DHT22;6863;48.402;9.994;2023-10-13T04:29:29;13.70;99.90
13585;DHT22;6863;48.402;9.994;2023-10-13T04:32:14;13.70;99.90
13585;DHT22;6863;48.402;9.994;2023-10-13T04:34:41;13.60;99.90
13585;DHT22;6863;48.402;9.994;2023-10-13T04:37:14;13.50;99.90
13585;DHT22;6863;48.402;9.994;2023-10-13T04:39:55;13.50;99.90
13585;DHT22;6863;48.402;9.994;2023-10-13T04:42:35;13.40;99.90
13585;DHT22;6863;48.402;9.994;2023-10-13T04:45:19;13.40;99.90
13585;DHT22;6863;48.402;9.994;2023-10-13T04:47:58;13.40;99.90
13585;DHT22;6863;48.402;9.994;2023-10-13T04:50:45;13.30;99.90
13585;DHT22;6863;48.402;9.994;2023-10-13T04:53:18;13.30;99.90
13585;DHT22;6863;48.402;9.994;2023-10-13T04:55:59;13.30;99.90
13585;DHT22;6863;48.402;9.994;2023-10-13T04:58:45;13.30;99.90
13585;DHT22;6863;48.402;9.994;2023-10-13T05:01:29;13.30;99.90
13585;DHT22;6863;48.402;9.994;2023-10-13T05:03:54;13.40;99.90
13585;DHT22;6863;48.402;9.994;2023-10-13T05:06:38;13.30;99.90
13585;DHT22;6863;48.402;9.994;2023-10-13T05:09:07;13.40;99.90
13585;DHT22;6863;48.402;9.994;2023-10-13T05:11:51;13.60;99.90
13585;DHT22;6863;48.402;9.994;2023-10-13T05:14:35;13.80;99.90
13585;DHT22;6863;48.402;9.994;2023-10-13T05:17:19;13.90;99.90
13585;DHT22;6863;48.402;9.994;2023-10-13T05:20:03;14.00;99.90
13585;DHT22;6863;48.402;9.994;2023-10-13T05:22:48;13.90;99.90
13585;DHT22;6863;48.402;9.994;2023-10-13T05:25:35;13.90;99.90
13585;DHT22;6863;48.402;9.994;2023-10-13T05:28:19;13.90;99.90
13585;DHT22;6863;48.402;9.994;2023-10-13T05:31:03;13.90;99.90
13585;DHT22;6863;48.402;9.994;2023-10-13T05:33:47;13.90;99.90
13585;DHT22;6863;48.402;9.994;2023-10-13T05:36:32;13.80;99.90
13585;DHT22;6863;48.402;9.994;2023-10-13T05:39:16;13.80;99.90
13585;DHT22;6863;48.402;9.994;2023-10-13T05:42:01;13.90;99.90
13585;DHT22;6863;48.402;9.994;2023-10-13T05:44:45;13.90;99.90
13585;DHT22;6863;48.402;9.994;2023-10-13T05:47:23;13.90;99.90
13585;DHT22;6863;48.402;9.994;2023-10-13T05:50:09;13.90;99.90
13585;DHT22;6863;48.402;9.994;2023-10-13T05:52:50;14.00;99.90
13585;DHT22;6863;48.402;9.994;2023-10-13T05:55:29;14.00;99.90
13585;DHT22;6863;48.402;9.994;2023-10-13T05:58:14;14.00;99.90
13585;DHT22;6863;48.402;9.994;2023-10-13T06:00:59;14.20;99.90
13585;DHT22;6863;48.402;9.994;2023-10-13T06:03:43;14.10;99.90
13585;DHT22;6863;48.402;9.994;2023-10-13T06:06:27;14.20;99.90
13585;DHT22;6863;48.402;9.994;2023-10-13T06:09:13;14.40;99.90
13585;DHT22;6863;48.402;9.994;2023-10-13T06:11:58;14.50;99.90
13585;DHT22;6863;48.402;9.994;2023-10-13T06:14:46;14.50;99.90
13585;DHT22;6863;48.402;9.994;2023-10-13T06:17:30;14.50;99.90
13585;DHT22;6863;48.402;9.994;2023-10-13T06:20:14;14.60;99.90
13585;DHT22;6863;48.402;9.994;2023-10-13T06:22:58;14.60;99.90
13585;DHT22;6863;48.402;9.994;2023-10-13T06:25:42;14.70;99.90
13585;DHT22;6863;48.402;9.994;2023-10-13T06:28:26;14.50;99.90
13585;DHT22;6863;48.402;9.994;2023-10-13T06:31:08;14.60;99.90
13585;DHT22;6863;48.402;9.994;2023-10-13T06:33:34;14.60;99.90
13585;DHT22;6863;48.402;9.994;2023-10-13T06:36:02;14.60;99.90
13585;DHT22;6863;48.402;9.994;2023-10-13T06:38:29;14.50;99.90
13585;DHT22;6863;48.402;9.994;2023-10-13T06:41:07;14.50;99.90
13585;DHT22;6863;48.402;9.994;2023-10-13T06:43:37;14.60;99.90
13585;DHT22;6863;48.402;9.994;2023-10-13T06:46:09;14.60;99.90
13585;DHT22;6863;48.402;9.994;2023-10-13T06:48:46;14.70;99.90
13585;DHT22;6863;48.402;9.994;2023-10-13T06:51:11;15.10;99.80
13585;DHT22;6863;48.402;9.994;2023-10-13T06:53:47;15.30;99.00
13585;DHT22;6863;48.402;9.994;2023-10-13T06:56:17;15.50;98.40
13585;DHT22;6863;48.402;9.994;2023-10-13T06:58:50;15.70;98.20
13585;DHT22;6863;48.402;9.994;2023-10-13T07:01:16;15.90;97.60
13585;DHT22;6863;48.402;9.994;2023-10-13T07:03:47;16.10;97.10
13585;DHT22;6863;48.402;9.994;2023-10-13T07:06:18;16.30;96.80
13585;DHT22;6863;48.402;9.994;2023-10-13T07:08:46;16.60;96.30
13585;DHT22;6863;48.402;9.994;2023-10-13T07:11:26;16.80;95.80
13585;DHT22;6863;48.402;9.994;2023-10-13T07:14:17;17.20;95.40
13585;DHT22;6863;48.402;9.994;2023-10-13T07:16:44;17.60;94.50
13585;DHT22;6863;48.402;9.994;2023-10-13T07:19:23;18.00;93.70
13585;DHT22;6863;48.402;9.994;2023-10-13T07:21:54;18.00;93.20
13585;DHT22;6863;48.402;9.994;2023-10-13T07:24:27;18.20;92.90
13585;DHT22;6863;48.402;9.994;2023-10-13T07:26:59;18.30;92.60
13585;DHT22;6863;48.402;9.994;2023-10-13T07:29:30;18.60;92.40
13585;DHT22;6863;48.402;9.994;2023-10-13T07:31:56;18.90;92.00
13585;DHT22;6863;48.402;9.994;2023-10-13T07:34:21;19.60;90.70
13585;DHT22;6863;48.402;9.994;2023-10-13T07:36:52;20.00;89.10
13585;DHT22;6863;48.402;9.994;2023-10-13T07:39:18;19.90;88.30
13585;DHT22;6863;48.402;9.994;2023-10-13T07:41:51;20.20;88.40
13585;DHT22;6863;48.402;9.994;2023-10-13T07:44:23;20.50;86.80
13585;DHT22;6863;48.402;9.994;2023-10-13T07:46:54;20.40;85.80
13585;DHT22;6863;48.402;9.994;2023-10-13T07:49:32;20.60;84.90
13585;DHT22;6863;48.402;9.994;2023-10-13T07:52:04;20.80;84.50
13585;DHT22;6863;48.402;9.994;2023-10-13T07:54:46;21.50;82.00
13585;DHT22;6863;48.402;9.994;2023-10-13T07:57:30;22.00;79.20
13585;DHT22;6863;48.402;9.994;2023-10-13T07:59:56;22.10;78.30
13585;DHT22;6863;48.402;9.994;2023-10-13T08:02:35;22.40;76.30
13585;DHT22;6863;48.402;9.994;2023-10-13T08:05:17;22.80;74.00
13585;DHT22;6863;48.402;9.994;2023-10-13T08:08:02;23.00;74.20
13585;DHT22;6863;48.402;9.994;2023-10-13T08:10:36;23.40;72.60
13585;DHT22;6863;48.402;9.994;2023-10-13T08:13:01;23.30;72.20
13585;DHT22;6863;48.402;9.994;2023-10-13T08:15:27;24.10;71.50
13585;DHT22;6863;48.402;9.994;2023-10-13T08:18:01;25.10;68.80
13585;DHT22;6863;48.402;9.994;2023-10-13T08:20:42;25.60;66.20
13585;DHT22;6863;48.402;9.994;2023-10-13T08:23:09;26.20;63.80
13585;DHT22;6863;48.402;9.994;2023-10-13T08:25:58;26.60;62.20
13585;DHT22;6863;48.402;9.994;2023-10-13T08:28:52;26.90;59.80
13585;DHT22;6863;48.402;9.994;2023-10-13T08:31:22;26.60;59.50
13585;DHT22;6863;48.402;9.994;2023-10-13T08:33:48;27.00;59.20
13585;DHT22;6863;48.402;9.994;2023-10-13T08:36:14;28.20;56.50
13585;DHT22;6863;48.402;9.994;2023-10-13T08:38:56;28.70;54.90
13585;DHT22;6863;48.402;9.994;2023-10-13T08:41:23;29.20;51.90
13585;DHT22;6863;48.402;9.994;2023-10-13T08:43:50;28.60;51.30
13585;DHT22;6863;48.402;9.994;2023-10-13T08:46:17;28.50;51.90
13585;DHT22;6863;48.402;9.994;2023-10-13T08:48:58;28.00;52.60
13585;DHT22;6863;48.402;9.994;2023-10-13T08:51:43;28.40;50.40
13585;DHT22;6863;48.402;9.994;2023-10-13T08:54:16;27.90;51.20
13585;DHT22;6863;48.402;9.994;2023-10-13T08:56:48;27.00;52.20
13585;DHT22;6863;48.402;9.994;2023-10-13T08:59:22;27.40;52.60
13585;DHT22;6863;48.402;9.994;2023-10-13T09:01:48;28.60;50.80
13585;DHT22;6863;48.402;9.994;2023-10-13T09:04:14;29.40;48.70
13585;DHT22;6863;48.402;9.994;2023-10-13T09:06:50;30.90;46.90
13585;DHT22;6863;48.402;9.994;2023-10-13T09:12:24;29.70;44.90
13585;DHT22;6863;48.402;9.994;2023-10-13T09:15:05;30.30;45.80
13585;DHT22;6863;48.402;9.994;2023-10-13T09:17:47;29.90;45.10
13585;DHT22;6863;48.402;9.994;2023-10-13T09:20:27;30.70;43.90
13585;DHT22;6863;48.402;9.994;2023-10-13T09:23:13;31.70;41.70
13585;DHT22;6863;48.402;9.994;2023-10-13T09:25:49;30.70;42.00
13585;DHT22;6863;48.402;9.994;2023-10-13T09:28:34;33.20;40.30
13585;DHT22;6863;48.402;9.994;2023-10-13T09:31:02;33.40;37.90
13585;DHT22;6863;48.402;9.994;2023-10-13T09:33:29;33.60;38.20
13585;DHT22;6863;48.402;9.994;2023-10-13T09:36:04;34.60;36.50
13585;DHT22;6863;48.402;9.994;2023-10-13T09:38:34;34.30;35.80
13585;DHT22;6863;48.402;9.994;2023-10-13T09:40:59;34.80;35.90
13585;DHT22;6863;48.402;9.994;2023-10-13T09:43:46;35.50;33.70
13585;DHT22;6863;48.402;9.994;2023-10-13T09:46:21;35.40;34.50
13585;DHT22;6863;48.402;9.994;2023-10-13T09:48:57;36.70;33.20
13585;DHT22;6863;48.402;9.994;2023-10-13T09:51:40;36.80;32.30
13585;DHT22;6863;48.402;9.994;2023-10-13T09:54:31;37.80;30.80
13585;DHT22;6863;48.402;9.994;2023-10-13T09:57:15;37.20;31.30
13585;DHT22;6863;48.402;9.994;2023-10-13T09:59:50;37.80;30.40
13585;DHT22;6863;48.402;9.994;2023-10-13T10:02:18;36.90;31.20
13585;DHT22;6863;48.402;9.994;2023-10-13T10:04:54;36.70;32.10
13585;DHT22;6863;48.402;9.994;2023-10-13T10:07:27;36.70;31.40
13585;DHT22;6863;48.402;9.994;2023-10-13T10:09:58;37.50;30.00
13585;DHT22;6863;48.402;9.994;2023-10-13T10:12:35;36.30;29.70
13585;DHT22;6863;48.402;9.994;2023-10-13T10:17:59;35.10;31.20
13585;DHT22;6863;48.402;9.994;2023-10-13T10:23:05;36.60;29.40
13585;DHT22;6863;48.402;9.994;2023-10-13T10:25:35;33.20;32.60
13585;DHT22;6863;48.402;9.994;2023-10-13T10:28:07;32.30;34.50
13585;DHT22;6863;48.402;9.994;2023-10-13T10:30:37;32.80;33.60
13585;DHT22;6863;48.402;9.994;2023-10-13T10:33:07;32.80;33.90
13585;DHT22;6863;48.402;9.994;2023-10-13T10:35:39;33.60;32.70
13585;DHT22;6863;48.402;9.994;2023-10-13T10:38:17;33.60;32.30
13585;DHT22;6863;48.402;9.994;2023-10-13T10:40:58;33.40;33.20
13585;DHT22;6863;48.402;9.994;2023-10-13T10:43:28;32.30;34.40
13585;DHT22;6863;48.402;9.994;2023-10-13T10:46:15;33.10;34.10
13585;DHT22;6863;48.402;9.994;2023-10-13T10:48:46;33.10;33.90
13585;DHT22;6863;48.402;9.994;2023-10-13T10:51:14;33.50;33.50
13585;DHT22;6863;48.402;9.994;2023-10-13T10:53:46;34.90;32.30
13585;DHT22;6863;48.402;9.994;2023-10-13T10:56:14;35.10;31.40
13585;DHT22;6863;48.402;9.994;2023-10-13T10:58:49;35.70;30.90
13585;DHT22;6863;48.402;9.994;2023-10-13T11:01:24;35.40;30.00
13585;DHT22;6863;48.402;9.994;2023-10-13T11:04:00;34.70;31.40
13585;DHT22;6863;48.402;9.994;2023-10-13T11:06:56;33.90;31.60
13585;DHT22;6863;48.402;9.994;2023-10-13T11:09:28;32.00;34.20
13585;DHT22;6863;48.402;9.994;2023-10-13T11:12:12;32.50;34.50
13585;DHT22;6863;48.402;9.994;2023-10-13T11:14:45;33.60;32.90
13585;DHT22;6863;48.402;9.994;2023-10-13T11:17:20;35.30;31.10
13585;DHT22;6863;48.402;9.994;2023-10-13T11:19:54;36.20;29.70
13585;DHT22;6863;48.402;9.994;2023-10-13T11:22:21;36.30;29.20
13585;DHT22;6863;48.402;9.994;2023-10-13T11:25:23;36.80;29.00
13585;DHT22;6863;48.402;9.994;2023-10-13T11:27:55;36.40;28.70
13585;DHT22;6863;48.402;9.994;2023-10-13T11:30:23;36.00;28.80
13585;DHT22;6863;48.402;9.994;2023-10-13T11:33:08;36.70;27.70
13585;DHT22;6863;48.402;9.994;2023-10-13T11:35:35;35.50;28.40
13585;DHT22;6863;48.402;9.994;2023-10-13T11:38:20;35.20;28.50
13585;DHT22;6863;48.402;9.994;2023-10-13T11:41:10;35.50;28.20
13585;DHT22;6863;48.402;9.994;2023-10-13T11:43:49;36.20;27.60
13585;DHT22;6863;48.402;9.994;2023-10-13T11:46:16;36.30;27.10
13585;DHT22;6863;48.402;9.994;2023-10-13T11:48:46;36.10;27.00
13585;DHT22;6863;48.402;9.994;2023-10-13T11:51:20;36.30;27.00
13585;DHT22;6863;48.402;9.994;2023-10-13T11:53:57;34.70;27.80
13585;DHT22;6863;48.402;9.994;2023-10-13T11:56:24;34.00;28.40
13585;DHT22;6863;48.402;9.994;2023-10-13T11:58:50;35.60;27.80
13585;DHT22;6863;48.402;9.994;2023-10-13T12:01:16;36.10;26.90
13585;DHT22;6863;48.402;9.994;2023-10-13T12:03:49;36.40;26.00
13585;DHT22;6863;48.402;9.994;2023-10-13T12:06:34;35.60;26.50
13585;DHT22;6863;48.402;9.994;2023-10-13T12:09:04;35.50;26.70
13585;DHT22;6863;48.402;9.994;2023-10-13T12:11:45;35.60;26.60
13585;DHT22;6863;48.402;9.994;2023-10-13T12:14:12;36.60;26.20
13585;DHT22;6863;48.402;9.994;2023-10-13T12:16:56;37.50;25.40
13585;DHT22;6863;48.402;9.994;2023-10-13T12:19:28;36.60;25.50
13585;DHT22;6863;48.402;9.994;2023-10-13T12:21:54;37.30;25.40
13585;DHT22;6863;48.402;9.994;2023-10-13T12:24:24;37.60;25.00
13585;DHT22;6863;48.402;9.994;2023-10-13T12:27:02;37.50;25.20
13585;DHT22;6863;48.402;9.994;2023-10-13T12:29:29;38.70;24.50
13585;DHT22;6863;48.402;9.994;2023-10-13T12:31:55;39.00;24.20
13585;DHT22;6863;48.402;9.994;2023-10-13T12:34:35;40.50;23.20
13585;DHT22;6863;48.402;9.994;2023-10-13T12:37:19;41.00;22.20
13585;DHT22;6863;48.402;9.994;2023-10-13T12:40:08;40.50;21.40
13585;DHT22;6863;48.402;9.994;2023-10-13T12:42:53;38.10;22.60
13585;DHT22;6863;48.402;9.994;2023-10-13T12:45:44;37.50;23.40
13585;DHT22;6863;48.402;9.994;2023-10-13T12:48:29;37.80;23.30
13585;DHT22;6863;48.402;9.994;2023-10-13T12:51:14;38.00;23.10
13585;DHT22;6863;48.402;9.994;2023-10-13T12:53:47;38.50;23.00
13585;DHT22;6863;48.402;9.994;2023-10-13T12:56:13;39.50;22.20
13585;DHT22;6863;48.402;9.994;2023-10-13T12:58:39;37.60;22.60
13585;DHT22;6863;48.402;9.994;2023-10-13T13:01:04;36.10;24.00
13585;DHT22;6863;48.402;9.994;2023-10-13T13:03:33;36.30;24.00
13585;DHT22;6863;48.402;9.994;2023-10-13T13:05:58;36.90;24.10
13585;DHT22;6863;48.402;9.994;2023-10-13T13:08:24;37.50;23.40
13585;DHT22;6863;48.402;9.994;2023-10-13T13:10:50;36.80;23.30
13585;DHT22;6863;48.402;9.994;2023-10-13T13:13:17;36.90;23.90
13585;DHT22;6863;48.402;9.994;2023-10-13T13:15:50;37.00;23.20
13585;DHT22;6863;48.402;9.994;2023-10-13T13:18:16;37.80;22.90
13585;DHT22;6863;48.402;9.994;2023-10-13T13:20:41;37.40;23.10
13585;DHT22;6863;48.402;9.994;2023-10-13T13:23:19;38.20;23.00
13585;DHT22;6863;48.402;9.994;2023-10-13T13:25:47;38.70;22.50
13585;DHT22;6863;48.402;9.994;2023-10-13T13:28:14;38.40;22.40
13585;DHT22;6863;48.402;9.994;2023-10-13T13:30:44;38.10;22.90
13585;DHT22;6863;48.402;9.994;2023-10-13T13:33:10;37.80;22.90
13585;DHT22;6863;48.402;9.994;2023-10-13T13:35:37;36.10;24.20
13585;DHT22;6863;48.402;9.994;2023-10-13T13:38:03;35.90;24.70
13585;DHT22;6863;48.402;9.994;2023-10-13T13:40:37;35.90;24.60
13585;DHT22;6863;48.402;9.994;2023-10-13T13:43:03;36.30;24.40
13585;DHT22;6863;48.402;9.994;2023-10-13T13:45:29;36.30;24.60
13585;DHT22;6863;48.402;9.994;2023-10-13T13:47:57;37.20;24.20
13585;DHT22;6863;48.402;9.994;2023-10-13T13:50:24;38.40;23.20
13585;DHT22;6863;48.402;9.994;2023-10-13T13:52:52;38.10;23.10
13585;DHT22;6863;48.402;9.994;2023-10-13T13:55:21;37.70;23.10
13585;DHT22;6863;48.402;9.994;2023-10-13T13:57:47;37.30;23.50
13585;DHT22;6863;48.402;9.994;2023-10-13T14:00:15;36.80;24.20
13585;DHT22;6863;48.402;9.994;2023-10-13T14:02:59;38.10;23.70
13585;DHT22;6863;48.402;9.994;2023-10-13T14:05:26;39.30;22.70
13585;DHT22;6863;48.402;9.994;2023-10-13T14:07:54;38.50;22.70
13585;DHT22;6863;48.402;9.994;2023-10-13T14:10:20;37.50;23.40
13585;DHT22;6863;48.402;9.994;2023-10-13T14:13:02;36.90;23.80
13585;DHT22;6863;48.402;9.994;2023-10-13T14:15:39;35.80;24.60
13585;DHT22;6863;48.402;9.994;2023-10-13T14:18:09;35.60;24.90
13585;DHT22;6863;48.402;9.994;2023-10-13T14:20:42;35.00;25.40
13585;DHT22;6863;48.402;9.994;2023-10-13T14:23:09;34.90;25.60
13585;DHT22;6863;48.402;9.994;2023-10-13T14:25:38;35.70;25.30
13585;DHT22;6863;48.402;9.994;2023-10-13T14:28:06;36.00;24.70
13585;DHT22;6863;48.402;9.994;2023-10-13T14:30:33;35.80;24.80
13585;DHT22;6863;48.402;9.994;2023-10-13T14:32:59;35.00;25.20
13585;DHT22;6863;48.402;9.994;2023-10-13T14:35:25;34.70;26.00
13585;DHT22;6863;48.402;9.994;2023-10-13T14:37:54;35.10;25.50
13585;DHT22;6863;48.402;9.994;2023-10-13T14:40:20;35.00;25.80
13585;DHT22;6863;48.402;9.994;2023-10-13T14:42:48;35.20;25.80
13585;DHT22;6863;48.402;9.994;2023-10-13T14:45:14;34.40;26.20
13585;DHT22;6863;48.402;9.994;2023-10-13T14:47:42;33.50;27.00
13585;DHT22;6863;48.402;9.994;2023-10-13T14:50:09;33.20;27.60
13585;DHT22;6863;48.402;9.994;2023-10-13T14:52:43;33.70;27.50
13585;DHT22;6863;48.402;9.994;2023-10-13T14:55:09;34.10;27.10
13585;DHT22;6863;48.402;9.994;2023-10-13T14:57:46;34.80;26.60
13585;DHT22;6863;48.402;9.994;2023-10-13T15:00:13;34.80;26.60
13585;DHT22;6863;48.402;9.994;2023-10-13T15:02:40;34.80;26.40
13585;DHT22;6863;48.402;9.994;2023-10-13T15:05:09;34.70;26.30
13585;DHT22;6863;48.402;9.994;2023-10-13T15:07:44;35.20;26.20
13585;DHT22;6863;48.402;9.994;2023-10-13T15:10:12;34.20;26.40
13585;DHT22;6863;48.402;9.994;2023-10-13T15:12:41;33.40;27.20
13585;DHT22;6863;48.402;9.994;2023-10-13T15:15:07;31.90;28.30
13585;DHT22;6863;48.402;9.994;2023-10-13T15:17:42;31.60;29.00
13585;DHT22;6863;48.402;9.994;2023-10-13T15:20:08;31.30;29.20
13585;DHT22;6863;48.402;9.994;2023-10-13T15:22:36;30.80;30.00
13585;DHT22;6863;48.402;9.994;2023-10-13T15:25:04;30.70;29.90
13585;DHT22;6863;48.402;9.994;2023-10-13T15:27:48;30.70;30.30
13585;DHT22;6863;48.402;9.994;2023-10-13T15:30:23;30.50;30.50
13585;DHT22;6863;48.402;9.994;2023-10-13T15:32:51;31.10;30.40
13585;DHT22;6863;48.402;9.994;2023-10-13T15:35:18;31.50;29.80
13585;DHT22;6863;48.402;9.994;2023-10-13T15:37:44;31.80;29.60
13585;DHT22;6863;48.402;9.994;2023-10-13T15:40:13;31.40;29.80
13585;DHT22;6863;48.402;9.994;2023-10-13T15:42:42;30.50;30.90
13585;DHT22;6863;48.402;9.994;2023-10-13T15:45:10;30.30;31.10
13585;DHT22;6863;48.402;9.994;2023-10-13T15:47:48;29.60;32.10
13585;DHT22;6863;48.402;9.994;2023-10-13T15:50:15;29.00;33.20
13585;DHT22;6863;48.402;9.994;2023-10-13T15:52:42;28.40;34.40
13585;DHT22;6863;48.402;9.994;2023-10-13T15:55:15;28.10;34.90
13585;DHT22;6863;48.402;9.994;2023-10-13T15:57:43;27.90;35.60
13585;DHT22;6863;48.402;9.994;2023-10-13T16:00:10;27.50;36.50
13585;DHT22;6863;48.402;9.994;2023-10-13T16:02:57;27.00;37.40
13585;DHT22;6863;48.402;9.994;2023-10-13T16:05:32;26.50;38.40
13585;DHT22;6863;48.402;9.994;2023-10-13T16:08:02;26.10;39.30
13585;DHT22;6863;48.402;9.994;2023-10-13T16:10:29;25.80;40.00
13585;DHT22;6863;48.402;9.994;2023-10-13T16:12:54;25.50;40.50
13585;DHT22;6863;48.402;9.994;2023-10-13T16:15:23;25.20;41.00
13585;DHT22;6863;48.402;9.994;2023-10-13T16:17:49;25.10;41.50
13585;DHT22;6863;48.402;9.994;2023-10-13T16:20:14;24.90;41.90
13585;DHT22;6863;48.402;9.994;2023-10-13T16:22:46;24.60;42.20
13585;DHT22;6863;48.402;9.994;2023-10-13T16:25:13;24.50;42.70
13585;DHT22;6863;48.402;9.994;2023-10-13T16:27:40;24.30;43.10
13585;DHT22;6863;48.402;9.994;2023-10-13T16:30:11;24.20;43.40
13585;DHT22;6863;48.402;9.994;2023-10-13T16:32:44;24.00;43.80
13585;DHT22;6863;48.402;9.994;2023-10-13T16:35:16;23.90;44.00
13585;DHT22;6863;48.402;9.994;2023-10-13T16:37:47;23.70;44.40